createdAt,value
2022-10-05T00:00:17.971Z,68.20
2022-10-05T00:02:20.648Z,68.10
2022-10-05T00:04:23.914Z,68.20
2022-10-05T00:06:28.494Z,68.40
2022-10-05T00:08:31.542Z,68.40
2022-10-05T00:10:33.155Z,68.10
2022-10-05T00:12:34.769Z,68.00
2022-10-05T00:14:36.635Z,68.00
2022-10-05T00:16:38.255Z,68.30
2022-10-05T00:18:40.283Z,68.40
2022-10-05T00:20:42.518Z,68.40
2022-10-05T00:22:44.134Z,68.30
2022-10-05T00:24:46.536Z,68.10
2022-10-05T00:26:52.885Z,68.20
2022-10-05T00:28:58.993Z,68.40
2022-10-05T00:31:00.827Z,68.50
2022-10-05T00:33:02.464Z,68.50
2022-10-05T00:35:04.186Z,68.30
2022-10-05T00:37:06.233Z,68.30
2022-10-05T00:39:07.913Z,68.60
2022-10-05T00:41:21.967Z,68.60
2022-10-05T00:43:38.748Z,68.50
2022-10-05T00:45:44.062Z,68.70
2022-10-05T00:48:20.868Z,68.60
2022-10-05T00:50:25.307Z,68.50
2022-10-05T00:52:27.229Z,68.40
2022-10-05T00:54:40.834Z,68.50
2022-10-05T00:56:49.833Z,68.50
2022-10-05T00:58:52.136Z,68.40
2022-10-05T01:01:07.918Z,68.50
2022-10-05T01:03:12.528Z,68.70
2022-10-05T01:05:18.346Z,68.60
2022-10-05T01:07:26.015Z,68.70
2022-10-05T01:09:38.822Z,68.80
2022-10-05T01:11:45.788Z,68.80
2022-10-05T01:13:51.294Z,68.80
2022-10-05T01:16:04.155Z,68.80
2022-10-05T01:18:21.994Z,68.70
2022-10-05T01:20:33.690Z,68.60
2022-10-05T01:23:03.997Z,68.50
2022-10-05T01:25:11.434Z,68.50
2022-10-05T01:27:31.965Z,68.50
2022-10-05T01:29:45.837Z,68.80
2022-10-05T01:31:59.872Z,68.70
2022-10-05T01:34:09.145Z,68.80
2022-10-05T01:36:12.876Z,68.70
2022-10-05T01:38:22.058Z,68.80
2022-10-05T01:40:23.627Z,68.70
2022-10-05T01:42:31.055Z,68.70
2022-10-05T01:44:54.984Z,68.70
2022-10-05T01:47:00.375Z,68.70
2022-10-05T01:49:04.755Z,68.50
2022-10-05T01:51:13.101Z,68.50
2022-10-05T01:53:47.523Z,68.80
2022-10-05T01:55:53.579Z,68.70
2022-10-05T01:58:13.810Z,68.60
2022-10-05T02:00:17.872Z,68.80
2022-10-05T02:02:21.886Z,69.20
2022-10-05T02:04:59.830Z,69.00
2022-10-05T02:06:51.777Z,68.90
2022-10-05T02:09:01.709Z,68.90
2022-10-05T02:11:08.298Z,68.70
2022-10-05T02:13:12.705Z,68.80
2022-10-05T02:15:17.084Z,68.90
2022-10-05T02:17:21.935Z,68.90
2022-10-05T02:19:27.429Z,68.80
2022-10-05T02:21:31.120Z,69.00
2022-10-05T02:23:34.439Z,69.10
2022-10-05T02:25:40.110Z,69.10
2022-10-05T02:27:47.514Z,69.20
2022-10-05T02:29:50.816Z,69.20
2022-10-05T02:31:57.895Z,69.10
2022-10-05T02:34:18.247Z,69.10
2022-10-05T02:36:23.105Z,69.20
2022-10-05T02:38:45.109Z,69.40
2022-10-05T02:40:52.441Z,69.20
2022-10-05T02:42:55.014Z,69.50
2022-10-05T02:44:59.733Z,69.70
2022-10-05T02:47:13.318Z,69.60
2022-10-05T02:49:27.432Z,70.30
2022-10-05T02:51:58.549Z,69.40
2022-10-05T02:54:03.445Z,69.30
2022-10-05T02:56:05.070Z,69.50
2022-10-05T02:58:06.649Z,69.40
2022-10-05T03:00:16.734Z,69.50
2022-10-05T03:02:41.336Z,69.50
2022-10-05T03:05:02.391Z,69.40
2022-10-05T03:07:10.043Z,69.30
2022-10-05T03:09:13.051Z,69.20
2022-10-05T03:11:30.053Z,69.40
2022-10-05T03:13:52.998Z,69.20
2022-10-05T03:15:55.228Z,69.10
2022-10-05T03:18:03.898Z,69.10
2022-10-05T03:20:23.753Z,69.10
2022-10-05T03:22:44.268Z,69.10
2022-10-05T03:24:48.933Z,69.00
2022-10-05T03:27:00.869Z,69.20
2022-10-05T03:29:20.898Z,69.20
2022-10-05T03:31:25.622Z,69.50
2022-10-05T03:33:34.438Z,69.40
2022-10-05T03:35:45.206Z,69.40
2022-10-05T03:38:05.570Z,69.40
2022-10-05T03:40:12.796Z,69.40
2022-10-05T03:42:24.358Z,69.40
2022-10-05T03:44:26.121Z,69.40
2022-10-05T03:46:50.593Z,69.40
2022-10-05T03:48:58.171Z,69.30
2022-10-05T03:51:02.377Z,69.70
2022-10-05T03:53:06.138Z,69.80
2022-10-05T03:55:16.640Z,69.90
2022-10-05T03:57:23.074Z,69.80
2022-10-05T03:59:34.135Z,69.60
2022-10-05T04:01:44.741Z,69.60
2022-10-05T04:03:51.876Z,69.60
2022-10-05T04:05:59.684Z,69.60
2022-10-05T04:08:07.031Z,69.70
2022-10-05T04:10:26.213Z,69.70
2022-10-05T04:12:36.833Z,69.70
2022-10-05T04:14:46.653Z,69.70
2022-10-05T04:17:09.741Z,69.70
2022-10-05T04:19:20.960Z,69.50
2022-10-05T04:21:23.892Z,69.70
2022-10-05T04:23:32.657Z,69.80
2022-10-05T04:25:41.463Z,69.80
2022-10-05T04:28:00.443Z,70.00
2022-10-05T04:30:13.507Z,69.80
2022-10-05T04:32:15.598Z,69.80
2022-10-05T04:34:36.763Z,69.60
2022-10-05T04:36:45.794Z,69.50
2022-10-05T04:38:53.900Z,69.60
2022-10-05T04:41:09.412Z,69.60
2022-10-05T04:43:10.989Z,69.60
2022-10-05T04:45:32.948Z,69.60
2022-10-05T04:47:37.146Z,69.60
2022-10-05T04:49:48.869Z,69.60
2022-10-05T04:52:00.580Z,69.50
2022-10-05T04:54:08.536Z,69.50
2022-10-05T04:56:14.387Z,69.40
2022-10-05T04:58:41.394Z,69.40
2022-10-05T05:01:02.821Z,69.50
2022-10-05T05:03:20.228Z,69.50
2022-10-05T05:05:34.139Z,69.60
2022-10-05T05:07:54.238Z,69.60
2022-10-05T05:10:22.201Z,69.50
2022-10-05T05:12:36.366Z,69.50
2022-10-05T05:14:38.046Z,69.60
2022-10-05T05:16:41.074Z,69.50
2022-10-05T05:19:04.407Z,69.40
2022-10-05T05:21:13.152Z,69.50
2022-10-05T05:23:33.453Z,69.50
2022-10-05T05:25:55.423Z,69.50
2022-10-05T05:27:59.257Z,69.60
2022-10-05T05:30:03.029Z,69.50
2022-10-05T05:32:24.122Z,69.60
2022-10-05T05:34:37.761Z,69.90
2022-10-05T05:36:52.538Z,69.60
2022-10-05T05:38:56.983Z,69.70
2022-10-05T05:41:01.614Z,69.50
2022-10-05T05:43:21.548Z,69.60
2022-10-05T05:45:42.883Z,69.50
2022-10-05T05:47:52.063Z,69.90
2022-10-05T05:50:07.355Z,70.10
2022-10-05T05:52:14.356Z,69.90
2022-10-05T05:54:15.983Z,69.90
2022-10-05T05:56:26.968Z,69.90
2022-10-05T05:58:31.605Z,69.90
2022-10-05T06:00:52.635Z,69.90
2022-10-05T06:02:57.000Z,69.90
2022-10-05T06:05:02.620Z,70.20
2022-10-05T06:07:05.035Z,70.20
2022-10-05T06:09:16.358Z,70.30
2022-10-05T06:11:29.790Z,70.30
2022-10-05T06:13:37.200Z,70.30
2022-10-05T06:15:40.820Z,70.30
2022-10-05T06:17:47.155Z,70.50
2022-10-05T06:19:49.491Z,70.60
2022-10-05T06:21:55.122Z,70.70
2022-10-05T06:24:00.711Z,70.70
2022-10-05T06:26:10.917Z,70.70
2022-10-05T06:28:16.146Z,70.70
2022-10-05T06:30:23.289Z,70.70
2022-10-05T06:32:29.764Z,70.60
2022-10-05T06:34:54.837Z,70.70
2022-10-05T06:37:00.035Z,70.70
2022-10-05T06:39:26.769Z,70.80
2022-10-05T06:41:37.704Z,70.40
2022-10-05T06:43:43.303Z,71.10
2022-10-05T06:46:01.936Z,70.10
2022-10-05T06:48:28.999Z,70.80
2022-10-05T06:51:14.173Z,70.00
2022-10-05T06:53:29.172Z,69.90
2022-10-05T06:55:33.910Z,69.80
2022-10-05T06:57:41.707Z,69.70
2022-10-05T06:59:44.000Z,69.80
2022-10-05T07:02:06.164Z,70.00
2022-10-05T07:04:08.147Z,70.00
2022-10-05T07:06:09.992Z,70.10
2022-10-05T07:08:15.882Z,70.10
2022-10-05T07:10:20.536Z,70.10
2022-10-05T07:12:41.875Z,70.20
2022-10-05T07:14:44.377Z,70.20
2022-10-05T07:16:52.210Z,70.30
2022-10-05T07:19:06.619Z,70.40
2022-10-05T07:21:15.003Z,70.40
2022-10-05T07:23:35.506Z,70.50
2022-10-05T07:25:58.612Z,70.70
2022-10-05T07:28:13.797Z,70.70
2022-10-05T07:30:16.065Z,70.80
2022-10-05T07:32:33.743Z,71.00
2022-10-05T07:34:54.387Z,70.80
2022-10-05T07:37:23.043Z,70.80
2022-10-05T07:39:55.443Z,71.00
2022-10-05T07:41:55.051Z,70.80
2022-10-05T07:44:05.777Z,70.90
2022-10-05T07:46:20.142Z,70.80
2022-10-05T07:48:26.369Z,70.80
2022-10-05T07:50:31.153Z,70.90
2022-10-05T07:52:39.841Z,70.90
2022-10-05T07:54:43.493Z,70.80
2022-10-05T07:56:49.474Z,70.80
2022-10-05T07:58:57.770Z,70.70
2022-10-05T08:01:08.831Z,70.60
2022-10-05T08:03:27.129Z,70.60
2022-10-05T08:05:30.532Z,70.70
2022-10-05T08:07:33.936Z,70.90
2022-10-05T08:09:54.863Z,70.80
2022-10-05T08:12:08.733Z,70.80
2022-10-05T08:14:16.930Z,70.80
2022-10-05T08:16:19.577Z,70.80
2022-10-05T08:18:33.581Z,70.80
2022-10-05T08:20:44.076Z,70.80
2022-10-05T08:22:59.032Z,70.90
2022-10-05T08:25:05.766Z,71.10
2022-10-05T08:27:30.716Z,71.00
2022-10-05T08:29:41.786Z,70.90
2022-10-05T08:31:45.914Z,70.90
2022-10-05T08:33:59.829Z,70.80
2022-10-05T08:36:12.413Z,70.80
2022-10-05T08:38:16.597Z,70.90
2022-10-05T08:40:24.432Z,70.90
2022-10-05T08:42:31.935Z,70.90
2022-10-05T08:44:56.965Z,71.00
2022-10-05T08:47:05.873Z,71.20
2022-10-05T08:49:22.780Z,71.20
2022-10-05T08:51:24.402Z,71.40
2022-10-05T08:53:35.207Z,71.40
2022-10-05T08:55:41.147Z,71.50
2022-10-05T08:58:03.209Z,71.70
2022-10-05T09:00:18.551Z,72.00
2022-10-05T09:02:22.946Z,71.80
2022-10-05T09:04:41.069Z,71.90
2022-10-05T09:06:48.441Z,72.00
2022-10-05T09:09:08.762Z,72.00
2022-10-05T09:11:26.377Z,72.10
2022-10-05T09:13:37.035Z,72.20
2022-10-05T09:15:44.669Z,72.20
2022-10-05T09:18:04.953Z,72.00
2022-10-05T09:20:14.533Z,71.90
2022-10-05T09:22:22.016Z,71.80
2022-10-05T09:24:27.105Z,71.70
2022-10-05T09:26:42.384Z,71.60
2022-10-05T09:29:02.975Z,71.70
2022-10-05T09:31:24.657Z,71.70
2022-10-05T09:33:38.177Z,71.70
2022-10-05T09:35:52.221Z,71.70
2022-10-05T09:38:02.986Z,71.70
2022-10-05T09:40:13.728Z,71.70
2022-10-05T09:42:18.456Z,71.40
2022-10-05T09:44:23.235Z,71.40
2022-10-05T09:46:25.076Z,71.70
2022-10-05T09:48:45.574Z,71.60
2022-10-05T09:51:07.513Z,71.60
2022-10-05T09:53:27.591Z,71.50
2022-10-05T09:55:41.612Z,71.50
2022-10-05T09:57:55.372Z,71.50
2022-10-05T10:00:29.571Z,71.50
2022-10-05T10:02:31.230Z,71.40
2022-10-05T10:04:39.054Z,71.40
2022-10-05T10:06:51.899Z,71.30
2022-10-05T10:09:12.484Z,71.30
2022-10-05T10:11:32.953Z,71.10
2022-10-05T10:13:43.729Z,71.10
2022-10-05T10:16:04.207Z,71.20
2022-10-05T10:18:11.639Z,71.10
2022-10-05T10:20:22.760Z,71.00
2022-10-05T10:22:43.361Z,71.10
2022-10-05T10:24:58.941Z,70.90
2022-10-05T10:27:03.456Z,70.70
2022-10-05T10:29:17.581Z,70.70
2022-10-05T10:31:22.060Z,70.60
2022-10-05T10:33:23.733Z,70.40
2022-10-05T10:35:43.969Z,70.30
2022-10-05T10:38:00.657Z,70.50
2022-10-05T10:40:15.820Z,70.70
2022-10-05T10:42:26.810Z,70.60
2022-10-05T10:44:34.383Z,70.40
2022-10-05T10:46:54.413Z,70.40
2022-10-05T10:49:02.254Z,70.30
2022-10-05T10:51:07.020Z,70.30
2022-10-05T10:53:11.876Z,70.50
2022-10-05T10:55:39.883Z,70.50
2022-10-05T10:57:47.354Z,70.40
2022-10-05T11:00:01.284Z,70.50
2022-10-05T11:02:02.923Z,70.50
2022-10-05T11:04:13.320Z,70.20
2022-10-05T11:06:25.495Z,70.00
2022-10-05T11:08:33.272Z,70.20
2022-10-05T11:10:49.743Z,70.00
2022-10-05T11:13:10.274Z,70.10
2022-10-05T11:15:30.925Z,70.20
2022-10-05T11:17:38.897Z,69.70
2022-10-05T11:20:02.619Z,69.60
2022-10-05T11:22:07.888Z,69.40
2022-10-05T11:24:09.553Z,68.80
2022-10-05T11:26:17.423Z,68.70
2022-10-05T11:28:19.108Z,69.80
2022-10-05T11:30:28.174Z,68.40
2022-10-05T11:32:29.787Z,68.70
2022-10-05T11:34:50.117Z,68.20
2022-10-05T11:36:51.767Z,68.10
2022-10-05T11:39:04.006Z,68.20
2022-10-05T11:41:17.740Z,68.00
2022-10-05T11:43:25.502Z,67.30
2022-10-05T11:45:36.458Z,67.40
2022-10-05T11:47:58.354Z,67.20
2022-10-05T11:50:06.531Z,67.40
2022-10-05T11:52:11.215Z,66.80
2022-10-05T11:54:18.364Z,67.20
2022-10-05T11:58:35.055Z,66.10
2022-10-05T12:00:36.896Z,66.50
2022-10-05T12:02:54.206Z,66.20
2022-10-05T12:05:18.222Z,66.30
2022-10-05T12:07:22.887Z,66.00
2022-10-05T12:09:30.719Z,66.00
2022-10-05T12:11:41.471Z,65.90
2022-10-05T12:13:46.165Z,65.70
2022-10-05T12:15:50.544Z,66.10
2022-10-05T12:18:08.168Z,65.50
2022-10-05T12:20:19.430Z,65.40
2022-10-05T12:22:22.305Z,65.20
2022-10-05T12:24:31.484Z,64.70
2022-10-05T12:26:45.506Z,64.80
2022-10-05T12:28:49.176Z,65.30
2022-10-05T12:30:50.900Z,65.30
2022-10-05T12:33:00.905Z,65.00
2022-10-05T12:35:06.285Z,64.80
2022-10-05T12:37:26.582Z,64.70
2022-10-05T12:39:37.451Z,64.50
2022-10-05T12:41:49.465Z,65.30
2022-10-05T12:43:51.097Z,64.70
2022-10-05T12:45:52.805Z,64.60
2022-10-05T12:47:54.543Z,64.10
2022-10-05T12:49:56.257Z,64.10
2022-10-05T12:51:59.121Z,64.00
2022-10-05T12:54:00.821Z,64.10
2022-10-05T12:56:02.580Z,63.50
2022-10-05T12:58:05.406Z,64.00
2022-10-05T13:00:12.647Z,64.30
2022-10-05T13:02:14.421Z,63.30
2022-10-05T13:04:19.097Z,64.10
2022-10-05T13:06:20.767Z,63.50
2022-10-05T13:08:36.658Z,63.80
2022-10-05T13:10:44.582Z,63.70
2022-10-05T13:12:52.973Z,63.80
2022-10-05T13:14:57.699Z,63.10
2022-10-05T13:17:02.460Z,63.00
2022-10-05T13:19:06.903Z,62.90
2022-10-05T13:21:26.771Z,62.40
2022-10-05T13:23:31.483Z,62.70
2022-10-05T13:25:36.642Z,62.60
2022-10-05T13:27:42.266Z,62.20
2022-10-05T13:29:54.180Z,62.30
2022-10-05T13:31:56.213Z,62.80
2022-10-05T13:34:01.385Z,62.50
2022-10-05T13:36:18.862Z,62.10
2022-10-05T13:38:20.546Z,62.00
2022-10-05T13:40:25.078Z,62.70
2022-10-05T13:42:34.102Z,61.30
2022-10-05T13:44:38.771Z,61.60
2022-10-05T13:46:53.729Z,61.80
2022-10-05T13:48:55.454Z,61.10
2022-10-05T13:51:05.235Z,60.60
2022-10-05T13:53:10.044Z,61.10
2022-10-05T13:55:11.725Z,61.30
2022-10-05T13:57:32.080Z,60.40
2022-10-05T13:59:53.955Z,61.30
2022-10-05T14:02:01.741Z,61.20
2022-10-05T14:04:03.744Z,61.40
2022-10-05T14:06:13.266Z,60.00
2022-10-05T14:08:17.750Z,60.80
2022-10-05T14:10:34.105Z,60.80
2022-10-05T14:12:44.118Z,60.60
2022-10-05T14:14:50.138Z,61.00
2022-10-05T14:16:56.357Z,60.50
2022-10-05T14:19:09.056Z,61.40
2022-10-05T14:21:10.722Z,61.20
2022-10-05T14:23:17.299Z,60.40
2022-10-05T14:25:22.097Z,61.40
2022-10-05T14:27:30.157Z,60.10
2022-10-05T14:29:35.961Z,57.70
2022-10-05T14:31:46.854Z,60.00
2022-10-05T14:33:48.568Z,60.20
2022-10-05T14:35:52.213Z,59.70
2022-10-05T14:37:53.889Z,59.60
2022-10-05T14:39:58.782Z,60.10
2022-10-05T14:42:03.066Z,60.00
2022-10-05T14:44:19.138Z,60.10
2022-10-05T14:46:29.069Z,59.30
2022-10-05T14:48:40.374Z,59.20
2022-10-05T14:50:52.505Z,59.20
2022-10-05T14:53:03.528Z,59.30
2022-10-05T14:55:05.347Z,59.70
2022-10-05T14:57:07.000Z,59.40
2022-10-05T14:59:22.157Z,59.30
2022-10-05T15:01:24.123Z,59.10
2022-10-05T15:03:40.909Z,58.90
2022-10-05T15:05:42.510Z,57.40
2022-10-05T15:07:49.243Z,58.40
2022-10-05T15:09:59.650Z,58.70
2022-10-05T15:12:02.077Z,58.80
2022-10-05T15:14:12.503Z,59.10
2022-10-05T15:16:18.910Z,58.40
2022-10-05T15:18:36.309Z,58.70
2022-10-05T15:20:43.583Z,58.90
2022-10-05T15:22:46.251Z,59.30
2022-10-05T15:25:01.558Z,59.20
2022-10-05T15:27:05.254Z,58.70
2022-10-05T15:29:14.158Z,59.00
2022-10-05T15:31:16.244Z,58.90
2022-10-05T15:33:23.311Z,58.40
2022-10-05T15:35:44.959Z,58.30
2022-10-05T15:37:52.064Z,58.20
2022-10-05T15:39:59.587Z,58.20
2022-10-05T15:42:01.241Z,58.00
2022-10-05T15:44:28.934Z,58.30
2022-10-05T15:46:36.454Z,57.70
2022-10-05T15:48:49.500Z,57.80
2022-10-05T15:51:02.556Z,58.50
2022-10-05T15:53:10.087Z,57.90
2022-10-05T15:55:23.205Z,58.00
2022-10-05T15:57:37.086Z,58.10
2022-10-05T15:59:47.711Z,57.80
2022-10-05T16:01:56.491Z,58.20
2022-10-05T16:04:13.555Z,58.00
2022-10-05T16:06:38.967Z,58.10
2022-10-05T16:08:55.920Z,58.20
2022-10-05T16:10:58.339Z,58.20
2022-10-05T16:13:12.883Z,58.20
2022-10-05T16:15:16.167Z,58.20
2022-10-05T16:17:26.854Z,58.30
2022-10-05T16:19:28.481Z,58.30
2022-10-05T16:21:45.755Z,58.30
2022-10-05T16:23:47.365Z,58.50
2022-10-05T16:25:52.036Z,58.60
2022-10-05T16:27:53.769Z,58.50
2022-10-05T16:30:01.098Z,58.60
2022-10-05T16:32:06.812Z,58.70
2022-10-05T16:34:19.886Z,58.80
2022-10-05T16:36:24.714Z,58.90
2022-10-05T16:38:38.356Z,58.90
2022-10-05T16:40:42.726Z,59.10
2022-10-05T16:42:46.236Z,59.10
2022-10-05T16:44:57.755Z,59.10
2022-10-05T16:47:04.470Z,59.30
2022-10-05T16:49:24.109Z,59.40
2022-10-05T16:51:25.865Z,59.40
2022-10-05T16:53:27.517Z,59.50
2022-10-05T16:55:37.531Z,59.60
2022-10-05T16:57:41.205Z,59.70
2022-10-05T16:59:52.706Z,59.80
2022-10-05T17:01:54.365Z,59.90
2022-10-05T17:04:15.486Z,60.00
2022-10-05T17:06:20.198Z,60.10
2022-10-05T17:08:40.807Z,60.20
2022-10-05T17:11:00.915Z,60.30
2022-10-05T17:13:11.504Z,60.50
2022-10-05T17:15:32.829Z,60.60
2022-10-05T17:17:35.507Z,60.60
2022-10-05T17:19:46.526Z,60.80
2022-10-05T17:21:48.203Z,60.80
2022-10-05T17:23:53.678Z,60.90
2022-10-05T17:26:18.651Z,61.00
2022-10-05T17:28:38.180Z,61.10
2022-10-05T17:30:54.867Z,61.20
2022-10-05T17:32:58.229Z,61.20
2022-10-05T17:35:02.914Z,61.50
2022-10-05T17:37:18.795Z,61.40
2022-10-05T17:39:22.257Z,61.50
2022-10-05T17:41:24.042Z,61.40
2022-10-05T17:43:30.702Z,61.60
2022-10-05T17:45:32.419Z,61.70
2022-10-05T17:47:54.347Z,61.70
2022-10-05T17:50:16.358Z,61.80
2022-10-05T17:52:40.501Z,61.70
2022-10-05T17:55:08.669Z,62.00
2022-10-05T17:57:10.329Z,62.10
2022-10-05T17:59:12.206Z,62.20
2022-10-05T18:01:17.091Z,62.20
2022-10-05T18:03:35.693Z,62.20
2022-10-05T18:05:38.183Z,62.20
2022-10-05T18:07:41.064Z,62.40
2022-10-05T18:09:56.755Z,62.40
2022-10-05T18:12:16.723Z,62.50
2022-10-05T18:14:20.429Z,62.70
2022-10-05T18:16:40.736Z,62.80
2022-10-05T18:18:42.429Z,62.80
2022-10-05T18:21:04.103Z,62.80
2022-10-05T18:23:09.760Z,62.90
2022-10-05T18:25:29.884Z,63.00
2022-10-05T18:27:43.774Z,63.10
2022-10-05T18:30:05.286Z,63.30
2022-10-05T18:32:13.389Z,63.50
2022-10-05T18:34:22.903Z,63.50
2022-10-05T18:36:27.622Z,63.50
2022-10-05T18:38:32.404Z,63.50
2022-10-05T18:40:38.297Z,63.60
2022-10-05T18:42:42.866Z,63.70
2022-10-05T18:44:51.319Z,63.50
2022-10-05T18:46:59.243Z,63.50
2022-10-05T18:49:10.565Z,63.40
2022-10-05T18:51:23.717Z,63.30
2022-10-05T18:53:25.457Z,63.30
2022-10-05T18:55:32.985Z,63.10
2022-10-05T18:57:37.951Z,63.10
2022-10-05T18:59:46.826Z,63.00
2022-10-05T19:01:57.813Z,62.80
2022-10-05T19:04:13.273Z,62.90
2022-10-05T19:06:26.893Z,62.70
2022-10-05T19:08:41.128Z,62.50
2022-10-05T19:10:58.765Z,62.50
2022-10-05T19:13:12.176Z,62.50
2022-10-05T19:15:22.496Z,62.30
2022-10-05T19:17:26.537Z,62.30
2022-10-05T19:19:42.618Z,62.20
2022-10-05T19:21:44.297Z,62.10
2022-10-05T19:24:02.155Z,61.90
2022-10-05T19:26:03.935Z,62.00
2022-10-05T19:28:24.551Z,61.80
2022-10-05T19:30:31.917Z,61.70
2022-10-05T19:32:33.609Z,61.80
2022-10-05T19:34:38.164Z,61.80
2022-10-05T19:37:03.268Z,61.60
2022-10-05T19:39:21.565Z,61.60
2022-10-05T19:41:35.544Z,61.20
2022-10-05T19:44:08.548Z,61.40
2022-10-05T19:46:34.872Z,61.70
2022-10-05T19:48:40.585Z,61.30
2022-10-05T19:50:52.906Z,61.10
2022-10-05T19:53:12.053Z,61.10
2022-10-05T19:55:16.084Z,61.00
2022-10-05T19:57:18.285Z,61.00
2022-10-05T19:59:24.671Z,60.80
2022-10-05T20:01:40.648Z,60.80
2022-10-05T20:03:47.267Z,60.40
2022-10-05T20:05:50.295Z,60.70
2022-10-05T20:07:52.229Z,60.40
2022-10-05T20:09:58.095Z,60.40
2022-10-05T20:12:00.786Z,60.10
2022-10-05T20:14:02.460Z,60.40
2022-10-05T20:16:45.602Z,60.20
2022-10-05T20:19:07.006Z,60.70
2022-10-05T20:21:28.861Z,60.30
2022-10-05T20:23:30.599Z,60.20
2022-10-05T20:25:32.448Z,60.40
2022-10-05T20:27:42.868Z,60.40
2022-10-05T20:29:47.516Z,60.10
2022-10-05T20:31:49.387Z,60.40
2022-10-05T20:33:52.884Z,60.20
2022-10-05T20:35:55.637Z,60.20
2022-10-05T20:38:00.976Z,60.20
2022-10-05T20:40:03.575Z,60.20
2022-10-05T20:42:05.608Z,60.10
2022-10-05T20:44:07.297Z,60.10
2022-10-05T20:46:08.971Z,60.10
2022-10-05T20:48:11.335Z,59.90
2022-10-05T20:50:13.717Z,60.10
2022-10-05T20:52:15.719Z,60.10
2022-10-05T20:54:20.586Z,60.20
2022-10-05T20:56:26.380Z,60.20
2022-10-05T20:58:28.299Z,60.20
2022-10-05T21:00:53.102Z,60.40
2022-10-05T21:02:54.811Z,60.30
2022-10-05T21:04:56.502Z,60.50
2022-10-05T21:06:58.202Z,60.60
2022-10-05T21:08:59.938Z,60.50
2022-10-05T21:11:01.649Z,60.60
2022-10-05T21:13:03.673Z,60.80
2022-10-05T21:15:10.057Z,60.80
2022-10-05T21:17:12.455Z,60.90
2022-10-05T21:19:14.597Z,61.00
2022-10-05T21:21:17.209Z,61.00
2022-10-05T21:23:18.883Z,61.10
2022-10-05T21:25:20.531Z,61.20
2022-10-05T21:27:22.249Z,61.40
2022-10-05T21:29:23.898Z,61.30
2022-10-05T21:31:26.266Z,61.40
2022-10-05T21:33:28.169Z,61.60
2022-10-05T21:35:30.035Z,61.70
2022-10-05T21:37:31.687Z,61.70
2022-10-05T21:39:34.606Z,61.80
2022-10-05T21:41:36.239Z,61.90
2022-10-05T21:43:38.063Z,61.80
2022-10-05T21:45:39.944Z,61.90
2022-10-05T21:47:41.649Z,61.90
2022-10-05T21:49:43.362Z,61.90
2022-10-05T21:51:45.205Z,62.10
2022-10-05T21:53:51.751Z,62.20
2022-10-05T21:55:53.544Z,62.30
2022-10-05T21:57:56.687Z,62.70
2022-10-05T21:59:58.318Z,62.40
2022-10-05T22:01:59.935Z,62.60
2022-10-05T22:04:02.641Z,62.50
2022-10-05T22:06:04.680Z,62.70
2022-10-05T22:08:06.509Z,63.50
2022-10-05T22:10:09.310Z,63.30
2022-10-05T22:12:10.991Z,62.80
2022-10-05T22:14:14.508Z,62.80
2022-10-05T22:16:18.228Z,62.80
2022-10-05T22:18:19.902Z,62.80
2022-10-05T22:20:21.845Z,63.00
2022-10-05T22:22:23.899Z,63.00
2022-10-05T22:24:25.659Z,63.10
2022-10-05T22:26:27.370Z,63.00
2022-10-05T22:28:29.823Z,63.00
2022-10-05T22:30:31.914Z,63.00
2022-10-05T22:32:33.518Z,63.10
2022-10-05T22:34:36.058Z,63.30
2022-10-05T22:36:37.781Z,63.30
2022-10-05T22:38:39.562Z,63.50
2022-10-05T22:40:41.180Z,63.40
2022-10-05T22:42:43.063Z,63.40
2022-10-05T22:44:44.658Z,63.70
2022-10-05T22:46:46.280Z,63.70
2022-10-05T22:48:48.112Z,63.60
2022-10-05T22:50:49.770Z,63.80
2022-10-05T22:52:52.600Z,63.80
2022-10-05T22:54:54.206Z,63.80
2022-10-05T22:56:55.813Z,63.70
2022-10-05T22:58:57.470Z,64.00
2022-10-05T23:01:03.595Z,64.10
2022-10-05T23:03:05.588Z,64.10
2022-10-05T23:05:08.218Z,64.20
2022-10-05T23:07:09.835Z,64.20
2022-10-05T23:09:11.456Z,64.20
2022-10-05T23:11:14.720Z,64.30
2022-10-05T23:13:16.448Z,64.20
2022-10-05T23:15:18.121Z,64.30
2022-10-05T23:17:20.886Z,64.30
2022-10-05T23:19:23.174Z,64.60
2022-10-05T23:21:26.919Z,64.50
2022-10-05T23:23:28.537Z,64.50
2022-10-05T23:25:30.241Z,64.50
2022-10-05T23:27:38.491Z,64.80
2022-10-05T23:29:40.105Z,64.80
2022-10-05T23:31:41.703Z,64.80
2022-10-05T23:33:43.312Z,65.00
2022-10-05T23:35:44.918Z,64.90
2022-10-05T23:37:46.532Z,65.00
2022-10-05T23:39:48.172Z,65.00
2022-10-05T23:41:49.852Z,65.20
2022-10-05T23:43:51.976Z,65.00
2022-10-05T23:45:53.645Z,65.00
2022-10-05T23:47:55.262Z,65.10
2022-10-05T23:49:56.840Z,65.30
2022-10-05T23:51:58.434Z,66.10
2022-10-05T23:54:00.100Z,65.20
2022-10-05T23:56:01.977Z,65.30
2022-10-05T23:58:03.906Z,65.40
